Time;durP1;ratioP1;P1;durP2;ratioP2;P2;SDS_P1;SDS_P2;PMS_P1;PMS_P2;Temp;Humidity;BMP_temperature;BMP_pressure;BME280_temperature;BME280_humidity;BME280_pressure;Samples;Min_cycle;Max_cycle;Signal;HPM_P1;HPM_P2
2022/12/23 00:01:32;;;;;;;2.78;1.60;;;;;;;;;;5067459;28;20039;-78
2022/12/23 00:03:59;;;;;;;2.80;1.63;;;;;;;;;;5075186;28;20463;-78
2022/12/23 00:06:34;;;;;;;2.80;1.60;;;;;;;;;;5071090;28;20040;-81
2022/12/23 00:09:10;;;;;;;2.08;1.30;;;;;;;;;;4994052;28;20041;-79
2022/12/23 00:15:04;;;;;;;3.95;1.73;;;;;;;;;;5046753;28;20117;-80
2022/12/23 00:15:04;;;;;;;2.90;1.77;;;11.50;99.90;;;;;;5068615;28;20020;-80
2022/12/23 00:17:34;;;;;;;3.13;1.70;;;;;;;;;;5073518;28;20024;-79
2022/12/23 00:20:02;;;;;;;2.60;1.60;;;;;;;;;;5051045;28;20380;-81
2022/12/23 00:23:05;;;;;;;3.70;1.55;;;;;;;;;;5051457;28;20094;-79
2022/12/23 00:25:43;;;;;;;2.35;1.45;;;;;;;;;;5059313;28;20020;-81
2022/12/23 00:28:18;;;;;;;3.47;1.50;;;;;;;;;;5079927;28;20024;-80
2022/12/23 00:30:45;;;;;;;4.55;1.80;;;;;;;;;;5087989;28;20020;-80
2022/12/23 00:33:19;;;;;;;2.67;1.58;;;;;;;;;;5086034;28;20024;-79
2022/12/23 00:35:50;;;;;;;3.20;1.77;;;;;;;;;;5077800;28;20051;-80
2022/12/23 00:44:02;;;;;;;3.00;1.52;;;;;;;;;;5080121;28;20047;-79
2022/12/23 00:46:45;;;;;;;2.42;1.50;;;;;;;;;;5070881;28;20062;-80
2022/12/23 00:51:57;;;;;;;7.53;1.85;;;;;;;;;;5071475;28;20038;-80
2022/12/23 00:54:23;;;;;;;3.60;1.52;;;;;;;;;;5054457;28;20502;-79
2022/12/23 00:56:51;;;;;;;3.83;1.48;;;;;;;;;;5070562;28;20017;-78
2022/12/23 00:59:19;;;;;;;5.03;1.40;;;;;;;;;;5061738;28;20056;-80
2022/12/23 01:07:23;;;;;;;2.60;1.70;;;;;;;;;;5047425;28;20044;-79
2022/12/23 01:09:56;;;;;;;2.28;1.30;;;;;;;;;;5053638;28;20140;-80
2022/12/23 01:12:23;;;;;;;2.33;1.30;;;;;;;;;;5061440;28;20375;-80
2022/12/23 01:14:49;;;;;;;3.30;1.55;;;;;;;;;;5044242;28;20483;-80
2022/12/23 01:17:19;;;;;;;4.10;2.15;;;;;;;;;;5071863;28;20024;-79
2022/12/23 01:20:02;;;;;;;4.63;2.05;;;;;;;;;;5061354;28;20032;-78
2022/12/23 01:22:31;;;;;;;2.78;1.75;;;;;;;;;;5062583;28;20204;-80
2022/12/23 01:25:00;;;;;;;3.28;1.65;;;;;;;;;;5035772;28;20036;-79
2022/12/23 01:27:27;;;;;;;3.30;1.48;;;;;;;;;;5072318;28;20521;-78
2022/12/23 01:29:53;;;;;;;1.67;1.00;;;;;;;;;;5065641;28;20033;-80
2022/12/23 01:32:20;;;;;;;3.13;1.25;;;;;;;;;;5072052;28;20496;-83
2022/12/23 01:34:49;;;;;;;1.73;1.00;;;;;;;;;;5053806;28;20453;-80
2022/12/23 01:37:15;;;;;;;2.22;1.00;;;;;;;;;;5050989;28;20029;-79
2022/12/23 01:39:42;;;;;;;2.03;1.10;;;;;;;;;;5040539;28;20119;-80
2022/12/23 01:45:04;;;;;;;2.90;1.45;;;;;;;;;;5089952;28;20089;-85
2022/12/23 01:50:23;;;;;;;4.15;1.83;;;;;;;;;;5050587;28;20046;-81
2022/12/23 01:52:51;;;;;;;1.35;0.90;;;;;;;;;;5051333;28;20025;-85
2022/12/23 02:27:51;;;;;;;2.33;0.90;;;11.70;99.90;;;;;;5048228;28;20056;-78
2022/12/23 02:30:55;;;;;;;6.55;1.10;;;11.70;99.90;;;;;;5042213;28;20060;-79
2022/12/23 02:33:47;;;;;;;1.30;0.90;;;;;;;;;;5040906;28;20036;-80
2022/12/23 02:37:17;;;;;;;0.90;0.70;;;11.60;99.90;;;;;;5037725;28;20025;-80
2022/12/23 02:41:01;;;;;;;1.77;0.75;;;11.50;99.90;;;;;;5022935;28;20348;-79
2022/12/23 03:23:54;;;;;;;1.58;0.63;;;11.40;99.90;;;;;;5053653;28;20060;-82
2022/12/23 03:27:24;;;;;;;2.20;0.90;;;11.30;99.90;;;;;;5063515;28;20048;-84
2022/12/23 03:30:21;;;;;;;1.88;0.60;;;;;;;;;;5064855;28;20040;-87
2022/12/23 15:17:57;;;;;;;2.13;1.20;;;13.70;99.90;;;;;;5033413;28;20138;-84
2022/12/23 15:20:28;;;;;;;1.88;0.88;;;13.70;99.90;;;;;;5032980;28;20294;-88
2022/12/23 15:23:32;;;;;;;2.22;0.80;;;13.70;99.90;;;;;;5034502;28;20097;-86
2022/12/23 15:26:23;;;;;;;1.33;0.70;;;13.70;99.90;;;;;;5031570;28;21247;-86
2022/12/23 15:29:57;;;;;;;1.27;0.75;;;13.80;99.90;;;;;;4993117;28;20045;-86
2022/12/23 15:32:38;;;;;;;2.17;1.10;;;;;;;;;;4979522;28;20069;-85
2022/12/23 15:38:28;;;;;;;6.00;2.60;;;13.70;99.90;;;;;;4988962;28;20057;-85
2022/12/23 15:44:37;;;;;;;3.05;0.80;;;13.70;99.90;;;;;;4984271;28;20064;-84
2022/12/23 17:08:17;;;;;;;2.90;1.02;;;13.60;99.90;;;;;;5032188;28;20144;-83
2022/12/23 18:29:53;;;;;;;3.67;1.50;;;13.70;99.90;;;;;;4777546;29;20066;-87
2022/12/23 18:32:54;;;;;;;6.45;2.05;;;13.60;99.90;;;;;;4801402;29;20478;-88
2022/12/23 18:36:29;;;;;;;7.40;2.17;;;13.60;99.90;;;;;;4846375;29;20054;-86
2022/12/23 18:39:56;;;;;;;;;;;13.60;99.90;;;;;;4824181;29;20038;-85
2022/12/23 18:43:18;;;;;;;4.65;1.23;;;13.60;99.90;;;;;;4811364;29;19929;-85
2022/12/23 18:45:53;;;;;;;4.18;1.60;;;;;;;;;;4827464;29;20073;-83
2022/12/23 18:48:53;;;;;;;3.88;1.20;;;13.50;99.90;;;;;;4842922;29;20038;-84
2022/12/23 18:52:11;;;;;;;6.63;1.42;;;13.90;99.90;;;;;;4845131;29;20038;-83
2022/12/23 18:54:40;;;;;;;4.95;1.65;;;;;;;;;;4880011;28;20031;-86
2022/12/23 19:00:28;;;;;;;2.80;1.20;;;13.80;99.90;;;;;;4975285;28;20397;-86
2022/12/23 19:03:19;;;;;;;4.43;1.30;;;;;;;;;;4959256;28;20162;-86
2022/12/23 19:06:15;;;;;;;5.10;1.40;;;13.70;99.90;;;;;;4986312;28;20049;-85
2022/12/23 19:09:05;;;;;;;5.57;1.50;;;13.60;99.90;;;;;;4963901;28;20551;-85
2022/12/23 19:12:03;;;;;;;6.43;1.60;;;13.40;99.90;;;;;;5037102;28;20028;-87
2022/12/23 19:15:26;;;;;;;8.50;1.90;;;13.40;99.90;;;;;;4976694;28;20039;-86
2022/12/23 19:18:04;;;;;;;4.78;1.80;;;13.30;99.90;;;;;;4998466;28;20034;-87
2022/12/23 19:20:31;;;;;;;6.97;1.83;;;;;;;;;;5035540;28;20033;-84
2022/12/23 19:23:01;;;;;;;14.93;3.38;;;13.00;99.90;;;;;;5039196;28;20034;-84
2022/12/23 19:25:40;;;;;;;11.57;2.20;;;12.80;99.90;;;;;;5042979;28;20028;-85
2022/12/23 19:28:16;;;;;;;10.00;2.85;;;12.80;99.90;;;;;;5024672;28;20088;-85
2022/12/23 19:30:47;;;;;;;9.63;2.53;;;12.70;99.90;;;;;;5034513;28;20037;-86
2022/12/23 19:33:37;;;;;;;13.23;3.40;;;12.70;99.90;;;;;;5042049;28;20029;-88
2022/12/23 19:36:28;;;;;;;12.32;2.92;;;12.60;99.90;;;;;;5005666;28;20034;-87
2022/12/23 19:39:20;;;;;;;15.40;3.72;;;12.50;99.90;;;;;;5019971;28;20150;-85
2022/12/23 19:41:55;;;;;;;10.68;2.42;;;12.40;99.90;;;;;;5016756;28;20628;-87
2022/12/23 19:44:48;;;;;;;13.52;3.13;;;12.30;99.90;;;;;;5018046;28;20041;-86
2022/12/23 19:47:38;;;;;;;10.18;3.60;;;12.20;99.90;;;;;;5026744;28;20512;-83
2022/12/23 19:51:04;;;;;;;13.68;2.85;;;12.20;99.90;;;;;;5034176;28;20042;-82
2022/12/23 19:53:58;;;;;;;11.02;3.95;;;12.10;99.90;;;;;;5020287;28;20401;-84
2022/12/23 20:00:39;;;;;;;11.73;2.72;;;12.10;99.90;;;;;;5040973;28;20524;-85
2022/12/23 20:04:23;;;;;;;11.50;2.60;;;12.10;99.90;;;;;;5036911;28;20033;-86
2022/12/23 20:07:36;;;;;;;11.95;2.80;;;12.10;99.90;;;;;;4979780;28;20089;-84
2022/12/23 20:10:48;;;;;;;9.18;2.40;;;12.10;99.90;;;;;;4948895;28;20042;-86
2022/12/23 20:17:27;;;;;;;10.73;3.17;;;12.10;99.90;;;;;;4955066;28;20049;-85
2022/12/23 20:20:15;;;;;;;9.32;2.53;;;12.00;99.90;;;;;;4980811;28;20073;-86
2022/12/23 20:23:32;;;;;;;9.35;2.40;;;12.00;99.90;;;;;;4976330;28;20023;-86
2022/12/23 20:27:05;;;;;;;11.45;2.35;;;12.10;99.90;;;;;;4920015;29;20118;-85
2022/12/23 20:30:56;;;;;;;8.95;2.15;;;12.10;99.90;;;;;;4891980;29;20039;-86
2022/12/23 20:34:03;;;;;;;12.20;2.15;;;12.20;99.90;;;;;;4930932;29;20583;-82
2022/12/23 20:40:47;;;;;;;7.22;2.47;;;;;;;;;;4991689;28;20056;-82
2022/12/23 22:05:39;;;;;;;11.65;2.20;;;;;;;;;;5455825;23;20073;-84
2022/12/23 22:08:19;;;;;;;14.48;3.78;;;;;;;;;;5025692;28;20026;-84
2022/12/23 22:10:46;;;;;;;11.55;1.92;;;;;;;;;;5013557;28;20038;-84
2022/12/23 22:13:12;;;;;;;9.63;2.47;;;;;;;;;;5050651;28;20033;-82
2022/12/23 22:15:42;;;;;;;10.00;2.70;;;;;;;;;;5033209;28;20022;-82
2022/12/23 22:18:10;;;;;;;12.82;2.42;;;;;;;;;;5045174;28;20086;-82
2022/12/23 22:20:41;;;;;;;13.25;2.60;;;;;;;;;;5035895;28;20022;-86
2022/12/23 22:23:09;;;;;;;7.57;1.92;;;;;;;;;;5053112;28;20018;-85
2022/12/23 22:25:35;;;;;;;9.20;2.13;;;;;;;;;;5048323;28;20009;-86
2022/12/23 22:28:02;;;;;;;8.90;2.63;;;;;;;;;;5050568;28;20064;-83
2022/12/23 22:30:31;;;;;;;11.73;2.20;;;;;;;;;;5051921;28;20089;-83
2022/12/23 22:32:57;;;;;;;9.05;2.00;;;;;;;;;;5039021;28;20013;-86
2022/12/23 22:35:26;;;;;;;11.40;3.13;;;;;;;;;;5035761;28;20013;-85
2022/12/23 22:37:52;;;;;;;11.27;1.83;;;;;;;;;;5036335;28;20041;-83
2022/12/23 22:40:18;;;;;;;12.93;2.08;;;;;;;;;;5033248;28;20029;-86
2022/12/23 22:42:45;;;;;;;11.35;2.10;;;;;;;;;;5055373;28;20033;-84
2022/12/23 22:45:17;;;;;;;7.85;2.10;;;;;;;;;;5055694;28;20032;-86
2022/12/23 22:48:00;;;;;;;9.13;2.40;;;;;;;;;;5048416;28;20037;-82
2022/12/23 22:50:26;;;;;;;8.63;1.65;;;;;;;;;;5034247;28;20006;-82
2022/12/23 22:52:53;;;;;;;12.40;2.42;;;;;;;;;;5050569;28;20060;-82
2022/12/23 22:55:28;;;;;;;13.70;2.45;;;;;;;;;;5030117;28;20029;-82
2022/12/23 22:57:57;;;;;;;13.52;2.47;;;;;;;;;;5046393;28;20029;-82
2022/12/23 23:10:53;;;;;;;13.32;2.45;;;;;;;;;;5761911;23;20104;-82
2022/12/23 23:13:30;;;;;;;14.88;2.28;;;;;;;;;;5033663;28;20064;-81
2022/12/23 23:16:37;;;;;;;;;;;;;;;;;;;;;
2022/12/23 23:19:36;;;;;;;14.05;2.63;;;;;;;;;;4976118;28;20037;-81
2022/12/23 23:22:26;;;;;;;12.25;2.40;;;;;;;;;;5040483;28;20041;-82
2022/12/23 23:24:53;;;;;;;13.77;2.33;;;;;;;;;;5045487;28;20276;-82
2022/12/23 23:27:19;;;;;;;16.40;2.42;;;;;;;;;;5044602;28;20017;-85
2022/12/23 23:29:59;;;;;;;11.88;2.53;;;;;;;;;;5026801;28;20072;-82
2022/12/23 23:32:28;;;;;;;11.75;2.60;;;;;;;;;;5040404;28;20486;-82
2022/12/23 23:34:57;;;;;;;12.88;2.47;;;;;;;;;;5039942;28;20121;-82
2022/12/23 23:37:26;;;;;;;12.55;2.47;;;;;;;;;;5026095;28;20018;-82
2022/12/23 23:39:53;;;;;;;11.25;2.35;;;;;;;;;;5031955;28;20016;-82
2022/12/23 23:42:21;;;;;;;12.40;2.63;;;;;;;;;;5044837;28;20028;-85
2022/12/23 23:44:50;;;;;;;10.23;2.45;;;;;;;;;;5076871;23;20047;-81
